Terminal Aerodrome Forecast
Issued by NWS Binghamton, NY

Home | Current Version | Previous Version | Text Only | Print | Product List | Glossary On
Versions: 1 2 3 4 5 6 7 8 9 10 11 12 13 14 15 16 17
000
FTUS41 KBGM 231100
TAFAVP
TAF
KAVP 231136Z 2312/2412 35014KT P6SM OVC014
      TEMPO 2312/2316 -SHRA
     FM231600 34012G20KT P6SM OVC020
     FM232300 33010KT P6SM OVC018=

USA.gov is the U.S. government's official web portal to all federal, state and local government web resources and services.